Time;durP1;ratioP1;P1;durP2;ratioP2;P2;SDS_P1;SDS_P2;PMS_P1;PMS_P2;Temp;Humidity;BMP_temperature;BMP_pressure;BME280_temperature;BME280_humidity;BME280_pressure;Samples;Min_cycle;Max_cycle;Signal;HPM_P1;HPM_P2
2022/01/28 00:01:13;;;;;;;17.77;8.10;;;;;;;4.01;93.60;99497.39;1669043;84;28312;-75
2022/01/28 00:03:39;;;;;;;19.35;9.08;;;;;;;4.01;93.58;99501.37;1670131;85;26475;-75
2022/01/28 00:06:07;;;;;;;15.50;8.68;;;;;;;4.02;93.31;99493.73;1670650;85;26553;-75
2022/01/28 00:08:34;;;;;;;9.30;5.47;;;;;;;4.03;93.32;99493.23;1670236;85;26685;-75
2022/01/28 00:11:00;;;;;;;18.27;8.68;;;;;;;4.04;92.98;99486.95;1670442;84;25839;-75
2022/01/28 00:16:14;;;;;;;14.80;7.72;;;;;;;4.03;93.07;99481.31;1670398;85;25962;-74
2022/01/28 00:39:40;;;;;;;14.00;6.58;;;;;;;3.82;92.25;99468.66;1670471;84;28087;-74
2022/01/28 00:42:07;;;;;;;8.45;4.42;;;;;;;3.80;92.25;99468.84;1670193;85;25954;-74
2022/01/28 00:44:33;;;;;;;9.88;5.12;;;;;;;3.79;92.34;99471.14;1670699;85;25866;-75
2022/01/28 00:47:00;;;;;;;9.45;4.55;;;;;;;3.80;92.36;99466.19;1670511;85;25800;-74
2022/01/28 00:49:26;;;;;;;13.32;4.53;;;;;;;3.81;92.33;99477.09;1670170;84;26276;-75
2022/01/28 00:51:53;;;;;;;15.05;5.12;;;;;;;3.83;91.87;99463.18;1670346;84;28366;-75
2022/01/28 00:54:19;;;;;;;10.40;3.87;;;;;;;3.81;91.67;99465.17;1670721;85;25758;-75
2022/01/28 00:56:47;;;;;;;11.00;4.62;;;;;;;3.77;91.38;99455.92;1670394;85;25815;-75
2022/01/28 00:59:14;;;;;;;11.63;4.42;;;;;;;3.75;91.56;99457.92;1670244;84;26674;-75
2022/01/28 01:01:41;;;;;;;7.03;3.80;;;;;;;3.72;91.23;99454.27;1670655;85;25789;-75
2022/01/28 01:04:07;;;;;;;10.13;4.17;;;;;;;3.69;91.28;99445.37;1670263;85;27463;-75
2022/01/28 01:06:34;;;;;;;12.13;3.45;;;;;;;3.69;91.25;99433.95;1670240;85;25936;-75
2022/01/28 01:09:02;;;;;;;6.92;3.45;;;;;;;3.69;90.86;99433.95;1670484;84;25834;-75
2022/01/28 01:11:29;;;;;;;6.42;3.52;;;;;;;3.70;91.04;99435.09;1670395;84;26442;-75
2022/01/28 01:13:56;;;;;;;10.13;3.58;;;;;;;3.71;90.90;99435.42;1670275;85;25748;-75
2022/01/28 01:16:35;;;;;;;7.37;3.50;;;;;;;3.74;90.58;99412.55;1670603;85;27478;-75
2022/01/28 01:19:18;;;;;;;6.75;3.90;;;;;;;3.75;90.84;99412.90;1668611;85;25787;-75
2022/01/28 01:21:42;;;;;;;9.33;3.95;;;;;;;3.76;90.50;99416.38;1669496;85;26484;-75
2022/01/28 01:24:19;;;;;;;7.03;3.52;;;;;;;3.75;90.17;99392.20;1670700;85;25771;-74
2022/01/28 01:26:41;;;;;;;6.22;3.37;;;;;;;3.76;89.66;99388.57;1669714;85;25908;-75
2022/01/28 01:29:11;;;;;;;10.10;3.33;;;;;;;3.75;89.61;99386.91;1670311;85;27492;-75
2022/01/28 01:31:40;;;;;;;8.85;2.45;;;;;;;3.77;89.91;99389.72;1670063;84;25904;-74
2022/01/28 01:34:14;;;;;;;9.50;3.40;;;;;;;3.78;89.81;99390.55;1670000;85;26473;-75
2022/01/28 01:36:39;;;;;;;8.75;2.80;;;;;;;3.80;89.41;99384.58;1669918;85;25858;-75
2022/01/28 01:39:08;;;;;;;11.20;3.52;;;;;;;3.80;89.55;99373.48;1670760;85;25814;-75
2022/01/28 01:41:42;;;;;;;10.03;3.40;;;;;;;3.83;89.17;99367.83;1670264;84;27468;-75
2022/01/28 01:44:20;;;;;;;8.50;3.30;;;;;;;3.85;89.57;99366.31;1669316;85;26061;-75
2022/01/28 01:52:03;;;;;;;7.25;3.45;;;;;;;3.88;88.65;99358.04;1670356;85;26002;-75
2022/01/28 01:54:37;;;;;;;9.25;3.85;;;;;;;3.89;88.31;99358.38;1670657;85;27492;-75
2022/01/28 01:57:07;;;;;;;6.75;3.60;;;;;;;3.91;89.23;99349.76;1670423;85;25916;-75
2022/01/28 01:59:33;;;;;;;9.73;3.50;;;;;;;3.93;89.23;99345.59;1670609;84;25306;-75
2022/01/28 02:02:00;;;;;;;8.25;3.50;;;;;;;3.93;88.76;99336.33;1670356;85;25943;-75
2022/01/28 02:04:26;;;;;;;7.22;3.15;;;;;;;3.93;88.87;99331.34;1670585;85;25926;-75
2022/01/28 02:06:53;;;;;;;8.18;3.40;;;;;;;3.94;88.19;99322.90;1670583;85;27504;-75
2022/01/28 02:09:19;;;;;;;12.30;3.80;;;;;;;3.96;87.92;99326.72;1670281;84;26577;-75
2022/01/28 02:11:46;;;;;;;13.25;3.30;;;;;;;3.98;87.52;99315.45;1670362;84;25720;-75
2022/01/28 02:14:12;;;;;;;8.48;3.33;;;;;;;4.00;88.37;99317.41;1670520;85;26363;-75
2022/01/28 02:16:38;;;;;;;10.25;3.40;;;;;;;4.01;88.24;99315.08;1670626;85;25859;-75
2022/01/28 02:19:05;;;;;;;10.43;3.37;;;;;;;4.02;88.61;99313.56;1670297;85;27459;-75
2022/01/28 02:21:45;;;;;;;9.08;3.55;;;;;;;4.01;89.04;99303.98;1670497;84;26552;-75
2022/01/28 02:24:09;;;;;;;9.75;2.62;;;;;;;3.98;89.20;99308.82;1669620;85;26555;-75
2022/01/28 02:26:37;;;;;;;9.88;2.33;;;;;;;3.93;89.71;99298.22;1670528;85;25787;-75
2022/01/28 02:29:14;;;;;;;9.05;2.17;;;;;;;3.88;89.77;99295.79;1670401;85;25834;-75
2022/01/28 02:31:35;;;;;;;8.98;3.17;;;;;;;3.79;90.13;99304.78;1669350;85;27471;-75
2022/01/28 02:34:04;;;;;;;11.60;2.92;;;;;;;3.70;90.70;99302.68;1670177;85;25861;-75
2022/01/28 02:36:30;;;;;;;7.20;1.75;;;;;;;3.63;91.27;99292.98;1670563;85;25766;-75
2022/01/28 02:39:02;;;;;;;6.78;1.90;;;;;;;3.57;91.44;99297.65;1670162;85;26583;-75
2022/01/28 02:41:30;;;;;;;10.03;2.00;;;;;;;3.50;92.04;99303.30;1669732;84;26574;-74
2022/01/28 02:44:10;;;;;;;5.35;1.42;;;;;;;3.45;92.25;99297.20;1669584;85;27560;-75
2022/01/28 02:46:30;;;;;;;8.30;2.98;;;;;;;3.40;92.76;99290.27;1668349;85;25958;-75
2022/01/28 02:49:04;;;;;;;9.08;2.33;;;;;;;3.35;92.98;99291.30;1670403;85;25942;-76
2022/01/28 02:51:23;;;;;;;9.60;2.33;;;;;;;3.31;93.23;99281.23;1669007;84;25791;-75
2022/01/28 02:53:56;;;;;;;7.62;1.82;;;;;;;3.31;93.49;99283.87;1670462;85;25759;-75
2022/01/28 02:56:32;;;;;;;10.48;3.75;;;;;;;3.29;93.58;99281.91;1670530;85;28345;-75
2022/01/28 02:58:51;;;;;;;8.03;2.58;;;;;;;3.28;93.97;99281.56;1668519;85;26382;-75
2022/01/28 03:01:19;;;;;;;10.80;2.90;;;;;;;3.27;94.04;99286.55;1670111;84;26181;-75
2022/01/28 03:03:48;;;;;;;11.65;2.80;;;;;;;3.27;94.30;99286.55;1670333;85;25789;-75
2022/01/28 03:06:17;;;;;;;8.40;2.35;;;;;;;3.25;94.66;99282.72;1670943;85;25826;-75
2022/01/28 03:08:57;;;;;;;9.48;2.65;;;;;;;3.24;94.75;99281.09;1670336;85;27649;-74
2022/01/28 03:16:22;;;;;;;5.70;2.30;;;;;;;3.16;95.43;99290.39;1651201;85;26365;-74
2022/01/28 03:18:59;;;;;;;8.10;3.33;;;;;;;3.14;95.63;99291.06;1670594;84;25834;-75
2022/01/28 03:23:51;;;;;;;12.07;2.92;;;;;;;3.10;96.34;99291.08;1670172;85;26374;-75
2022/01/28 03:26:17;;;;;;;5.92;2.10;;;;;;;3.07;96.30;99293.56;1670793;85;25883;-75
2022/01/28 03:28:44;;;;;;;5.95;1.77;;;;;;;3.05;96.75;99292.91;1670567;85;26600;-75
2022/01/28 03:31:10;;;;;;;9.45;2.92;;;;;;;3.04;96.97;99279.83;1670418;84;25943;-75
2022/01/28 03:33:37;;;;;;;7.58;1.98;;;;;;;3.03;97.15;99280.36;1670206;83;27479;-75
2022/01/28 03:36:08;;;;;;;6.60;2.05;;;;;;;3.02;97.23;99275.21;1670790;85;25748;-75
2022/01/28 03:38:33;;;;;;;7.67;1.87;;;;;;;3.03;97.35;99279.03;1670312;85;25745;-75
2022/01/28 03:41:00;;;;;;;6.87;1.92;;;;;;;3.03;97.28;99288.29;1670432;84;26562;-75
2022/01/28 03:43:26;;;;;;;5.87;1.70;;;;;;;3.03;97.82;99278.20;1670437;85;25840;-75
2022/01/28 03:45:52;;;;;;;4.85;2.12;;;;;;;3.02;97.90;99275.21;1670619;85;27731;-75
2022/01/28 03:48:19;;;;;;;8.33;2.25;;;;;;;3.00;97.94;99270.11;1670413;83;25814;-75
2022/01/28 03:50:45;;;;;;;9.93;2.55;;;;;;;3.01;97.94;99278.38;1670262;84;25878;-74
2022/01/28 03:53:12;;;;;;;3.22;1.57;;;;;;;3.02;98.13;99284.47;1670212;84;25944;-75
2022/01/28 03:55:38;;;;;;;3.37;1.87;;;;;;;3.00;98.36;99284.66;1670629;85;25853;-75
2022/01/28 03:58:04;;;;;;;7.20;2.45;;;;;;;3.00;98.40;99294.40;1670512;85;27493;-75
2022/01/28 04:00:32;;;;;;;5.78;1.75;;;;;;;2.99;98.61;99284.31;1670370;84;26559;-75
2022/01/28 04:04:18;;;;;;;7.20;1.70;;;;;;;2.98;98.62;99291.94;1670165;85;25777;-75
2022/01/28 04:13:33;;;;;;;7.85;2.52;;;;;;;2.95;99.15;99287.49;1670105;85;25854;-75
2022/01/28 04:18:26;;;;;;;8.63;2.90;;;;;;;2.97;99.50;99287.63;1670381;85;26684;-75
2022/01/28 04:20:52;;;;;;;7.60;3.40;;;;;;;2.96;99.59;99295.25;1670541;84;25793;-75
2022/01/28 04:23:21;;;;;;;4.58;2.20;;;;;;;2.96;99.34;99299.22;1670481;85;27305;-75
2022/01/28 04:25:47;;;;;;;6.50;1.87;;;;;;;2.97;99.71;99300.05;1670539;85;25801;-74
2022/01/28 04:28:13;;;;;;;5.80;2.00;;;;;;;2.98;99.57;99297.23;1670736;85;25787;-75
2022/01/28 04:30:40;;;;;;;3.80;1.20;;;;;;;3.00;99.60;99310.27;1670432;84;25931;-74
2022/01/28 04:33:06;;;;;;;2.87;1.05;;;;;;;3.00;99.81;99298.37;1670292;85;25934;-75
2022/01/28 04:35:32;;;;;;;6.00;1.30;;;;;;;3.02;99.73;99304.31;1670426;84;27472;-75
2022/01/28 04:38:14;;;;;;;3.75;1.87;;;;;;;3.04;99.71;99318.19;1670764;85;26559;-75
2022/01/28 04:40:31;;;;;;;2.87;1.25;;;;;;;3.05;99.63;99319.37;1667398;84;25822;-75
2022/01/28 04:43:15;;;;;;;2.92;1.22;;;;;;;3.06;99.84;99311.73;1669867;85;26662;-75
2022/01/28 04:45:48;;;;;;;2.47;1.10;;;;;;;3.08;99.67;99319.01;1668293;85;25759;-75
2022/01/28 04:48:36;;;;;;;4.58;1.10;;;;;;;3.10;99.84;99317.53;1669190;85;28210;-75
2022/01/28 04:51:09;;;;;;;2.90;1.00;;;;;;;3.13;99.87;99323.79;1668210;84;25801;-75
2022/01/28 04:56:13;;;;;;;5.90;1.30;;;;;;;3.16;100.00;99335.86;1670630;85;26588;-75
2022/01/28 05:01:20;;;;;;;4.20;1.22;;;;;;;3.20;100.00;99353.87;1670319;84;28104;-75
2022/01/28 05:03:42;;;;;;;;;;;;;;;3.21;100.00;99358.16;1668789;85;26440;-75
2022/01/28 05:14:15;;;;;;;2.00;0.90;;;;;;;3.29;100.00;99356.00;1670245;85;27453;-75
2022/01/28 05:16:48;;;;;;;3.10;1.60;;;;;;;3.32;100.00;99363.58;1666235;85;25772;-75
2022/01/28 05:27:10;;;;;;;2.20;0.90;;;;;;;3.33;100.00;99372.69;1670289;85;28546;-75
2022/01/28 05:29:35;;;;;;;2.55;1.10;;;;;;;3.34;100.00;99373.00;1669885;84;25797;-76
2022/01/28 05:32:03;;;;;;;3.75;0.95;;;;;;;3.36;100.00;99382.12;1670436;85;26453;-74
2022/01/28 05:34:30;;;;;;;4.97;1.32;;;;;;;3.37;100.00;99377.13;1670478;84;26588;-75
2022/01/28 05:36:56;;;;;;;6.90;1.65;;;;;;;3.36;100.00;99376.30;1670685;85;25933;-75
2022/01/28 05:39:23;;;;;;;2.67;1.35;;;;;;;3.37;100.00;99393.84;1669909;84;28231;-75
2022/01/28 05:41:49;;;;;;;3.55;2.05;;;;;;;3.37;99.99;99396.98;1670374;85;25768;-76
2022/01/28 05:44:16;;;;;;;3.42;1.15;;;;;;;3.38;99.92;99399.97;1670204;85;25959;-75
2022/01/28 05:46:44;;;;;;;3.72;1.07;;;;;;;3.38;99.97;99394.16;1670687;85;25841;-75
2022/01/28 05:49:10;;;;;;;2.08;1.12;;;;;;;3.38;99.97;99403.42;1670282;85;25734;-75
2022/01/28 05:51:36;;;;;;;4.53;2.33;;;;;;;3.38;100.00;99399.45;1669734;84;27460;-74
2022/01/28 05:54:02;;;;;;;6.60;2.15;;;;;;;3.37;100.00;99396.98;1669871;85;25842;-75
2022/01/28 05:56:31;;;;;;;4.00;1.30;;;;;;;3.38;100.00;99406.59;1670627;85;25922;-74
2022/01/28 05:58:57;;;;;;;3.25;1.20;;;;;;;3.39;100.00;99409.06;1670306;85;27041;-75
2022/01/28 06:01:23;;;;;;;5.67;1.20;;;;;;;3.38;100.00;99407.39;1670266;84;25889;-76
2022/01/28 06:03:50;;;;;;;3.12;1.50;;;;;;;3.38;100.00;99413.21;1670107;85;27493;-75
2022/01/28 06:06:22;;;;;;;5.15;1.55;;;;;;;3.39;100.00;99407.73;1670333;85;25789;-79
2022/01/28 06:08:51;;;;;;;5.87;1.40;;;;;;;3.38;100.00;99413.21;1670422;85;26171;-74
2022/01/28 06:11:18;;;;;;;7.58;1.55;;;;;;;3.38;100.00;99414.53;1670324;84;25830;-75
2022/01/28 06:13:45;;;;;;;6.75;1.75;;;;;;;3.40;100.00;99418.63;1670308;85;25749;-74
2022/01/28 06:16:14;;;;;;;2.87;1.30;;;;;;;3.43;100.00;99421.45;1670639;85;27470;-75
2022/01/28 06:18:40;;;;;;;2.95;1.10;;;;;;;3.44;100.00;99424.44;1670460;84;25875;-75
2022/01/28 06:21:07;;;;;;;4.00;1.72;;;;;;;3.45;100.00;99430.88;1670589;84;25783;-74
2022/01/28 06:23:34;;;;;;;5.85;1.95;;;;;;;3.45;100.00;99435.34;1670502;85;26029;-75
2022/01/28 06:26:02;;;;;;;7.08;2.15;;;;;;;3.46;100.00;99437.00;1670697;85;26059;-75
2022/01/28 06:28:28;;;;;;;6.05;1.65;;;;;;;3.45;100.00;99431.36;1670347;85;27569;-75
2022/01/28 06:30:54;;;;;;;2.67;1.32;;;;;;;3.44;100.00;99428.41;1670262;84;25805;-75
2022/01/28 06:33:21;;;;;;;5.62;1.87;;;;;;;3.42;100.00;99441.78;1670298;85;25792;-75
2022/01/28 06:35:48;;;;;;;4.90;1.72;;;;;;;3.42;100.00;99447.08;1670909;85;25776;-75
2022/01/28 06:38:15;;;;;;;3.08;1.77;;;;;;;3.41;100.00;99447.27;1670344;84;26161;-75
2022/01/28 06:40:42;;;;;;;3.75;1.40;;;;;;;3.40;100.00;99457.02;1670214;84;27451;-74
2022/01/28 06:43:11;;;;;;;3.98;2.02;;;;;;;3.40;100.00;99464.16;1670178;85;25742;-75
2022/01/28 06:45:41;;;;;;;3.65;1.40;;;;;;;3.39;100.00;99475.23;1670631;85;26549;-74
2022/01/28 06:48:10;;;;;;;4.55;1.62;;;;;;;3.40;100.00;99473.42;1670372;85;26205;-74
2022/01/28 06:50:44;;;;;;;5.83;1.82;;;;;;;3.39;100.00;99488.46;1670262;84;25981;-75
2022/01/28 06:53:13;;;;;;;3.55;1.20;;;;;;;3.40;100.00;99490.09;1670427;85;27457;-75
2022/01/28 06:55:40;;;;;;;2.25;1.20;;;;;;;3.40;100.00;99489.30;1670967;84;26544;-75
2022/01/28 06:58:09;;;;;;;5.87;1.57;;;;;;;3.41;100.00;99502.84;1670108;85;26507;-75
2022/01/28 07:00:37;;;;;;;3.95;1.60;;;;;;;3.40;100.00;99503.34;1671522;84;26592;-75
2022/01/28 07:03:10;;;;;;;3.30;1.40;;;;;;;3.41;100.00;99508.14;1670450;85;25828;-75
2022/01/28 07:05:37;;;;;;;3.98;1.50;;;;;;;3.43;100.00;99520.22;1647750;85;27456;-75
2022/01/28 07:08:04;;;;;;;4.97;1.40;;;;;;;3.42;100.00;99523.84;1670407;85;25950;-75
2022/01/28 07:10:32;;;;;;;5.40;1.42;;;;;;;3.42;100.00;99534.95;1670687;84;25924;-75
2022/01/28 07:12:58;;;;;;;6.17;1.85;;;;;;;3.41;100.00;99537.25;1670460;85;26004;-75
2022/01/28 07:15:27;;;;;;;4.30;1.90;;;;;;;3.41;100.00;99547.84;1670878;85;25904;-74
2022/01/28 07:17:57;;;;;;;3.25;1.45;;;;;;;3.40;100.00;99549.66;1670735;85;27449;-75
2022/01/28 07:20:23;;;;;;;6.50;1.70;;;;;;;3.40;100.00;99552.30;1670871;84;26468;-74
2022/01/28 07:22:49;;;;;;;4.03;1.57;;;;;;;3.42;100.00;99562.75;1670435;85;25773;-75
2022/01/28 07:25:16;;;;;;;2.58;1.35;;;;;;;3.41;100.00;99558.43;1670542;85;25955;-74
2022/01/28 07:27:42;;;;;;;2.60;1.40;;;;;;;3.43;100.00;99565.22;1670614;85;25942;-75
2022/01/28 07:30:09;;;;;;;2.75;1.90;;;;;;;3.43;100.00;99572.33;1670309;84;27457;-75
2022/01/28 07:32:36;;;;;;;2.77;1.62;;;;;;;3.42;100.00;99584.72;1670230;85;25946;-74
2022/01/28 07:35:04;;;;;;;2.50;1.60;;;;;;;3.41;100.00;99583.09;1670496;85;25832;-74
2022/01/28 07:37:30;;;;;;;4.10;1.70;;;;;;;3.42;100.00;99597.16;1670690;85;26578;-75
2022/01/28 07:39:56;;;;;;;3.92;2.40;;;;;;;3.42;100.00;99594.51;1670691;84;25845;-75
2022/01/28 07:42:24;;;;;;;3.85;2.12;;;;;;;3.40;100.00;99601.79;1670502;85;27477;-75
2022/01/28 07:44:50;;;;;;;2.20;1.70;;;;;;;3.41;99.81;99615.34;1670678;85;25813;-75
2022/01/28 07:47:17;;;;;;;3.25;1.70;;;;;;;3.37;99.32;99617.98;1670700;85;26479;-76
2022/01/28 07:49:43;;;;;;;2.52;1.80;;;;;;;3.36;99.49;99629.06;1670070;84;26634;-77
2022/01/28 07:52:09;;;;;;;3.92;2.15;;;;;;;3.32;99.60;99633.52;1670379;85;25754;-77
2022/01/28 07:54:35;;;;;;;3.08;2.02;;;;;;;3.31;98.86;99633.20;1670593;85;28343;-76
2022/01/28 07:57:02;;;;;;;2.37;1.92;;;;;;;3.28;99.23;99643.63;1670239;85;25835;-77
2022/01/28 07:59:28;;;;;;;2.30;2.05;;;;;;;3.28;98.92;99658.17;1670472;84;25790;-77
2022/01/28 08:01:55;;;;;;;3.90;2.17;;;;;;;3.26;99.23;99662.81;1670308;85;26347;-76
2022/01/28 08:04:21;;;;;;;2.42;1.52;;;;;;;3.27;99.32;99661.00;1670582;85;25964;-77
2022/01/28 08:06:47;;;;;;;3.83;2.10;;;;;;;3.25;99.18;99684.16;1670660;85;27464;-76
2022/01/28 08:09:13;;;;;;;2.62;2.00;;;;;;;3.24;99.45;99680.67;1670477;85;25843;-76
2022/01/28 08:11:39;;;;;;;2.25;1.98;;;;;;;3.23;99.16;99682.16;1670512;85;25774;-77
2022/01/28 08:14:06;;;;;;;3.45;2.67;;;;;;;3.21;99.25;99688.11;1670425;85;26016;-76
2022/01/28 08:16:32;;;;;;;3.47;2.42;;;;;;;3.20;99.34;99699.67;1670393;84;25836;-77
2022/01/28 08:18:58;;;;;;;2.37;2.17;;;;;;;3.21;99.46;99702.67;1670283;85;27470;-77
2022/01/28 08:21:25;;;;;;;3.42;2.17;;;;;;;3.21;99.35;99707.44;1669964;84;25333;-76
2022/01/28 08:23:51;;;;;;;3.80;2.27;;;;;;;3.21;98.81;99722.52;1669654;85;25320;-77
2022/01/28 08:26:18;;;;;;;2.47;2.27;;;;;;;3.20;98.59;99726.97;1665453;85;26129;-77
2022/01/28 08:28:47;;;;;;;2.60;2.40;;;;;;;3.21;98.83;99726.48;1670078;85;26525;-77
2022/01/28 08:31:14;;;;;;;3.00;2.33;;;;;;;3.20;98.86;99732.27;1670085;84;27473;-74
2022/01/28 08:33:40;;;;;;;2.25;1.95;;;;;;;3.22;98.86;99740.03;1670151;85;25988;-74
2022/01/28 08:36:07;;;;;;;2.85;2.05;;;;;;;3.24;98.77;99749.96;1670329;85;46143;-75
2022/01/28 08:38:43;;;;;;;2.30;1.40;;;;;;;3.24;98.51;99756.58;1670463;85;26503;-75
2022/01/28 08:41:05;;;;;;;;;;;;;;;3.23;98.05;99757.06;1668245;84;26591;-74
2022/01/28 08:43:32;;;;;;;1.80;1.52;;;;;;;3.22;98.32;99770.46;1670099;84;27404;-75
2022/01/28 08:45:59;;;;;;;1.87;1.52;;;;;;;3.20;98.22;99770.63;1670618;85;26103;-74
2022/01/28 08:48:28;;;;;;;2.62;2.12;;;;;;;3.21;98.25;99791.31;1670708;85;25797;-73
2022/01/28 08:50:54;;;;;;;3.35;1.80;;;;;;;3.22;98.02;99792.95;1669880;84;25907;-74
2022/01/28 08:53:21;;;;;;;1.87;1.12;;;;;;;3.21;97.84;99800.06;1670098;85;26509;-75
2022/01/28 08:55:48;;;;;;;1.00;0.93;;;;;;;3.22;97.83;99803.06;1670531;85;27430;-74
2022/01/28 08:58:15;;;;;;;3.35;1.35;;;;;;;3.22;97.56;99812.31;1670345;85;26529;-74
2022/01/28 09:00:45;;;;;;;1.52;1.05;;;;;;;3.21;97.39;99819.91;1670031;84;26207;-75
2022/01/28 09:03:09;;;;;;;1.12;0.93;;;;;;;3.20;97.60;99831.50;1670091;85;25852;-75
2022/01/28 09:05:35;;;;;;;1.55;1.22;;;;;;;3.20;97.49;99837.28;1670248;85;25905;-74
2022/01/28 09:08:08;;;;;;;1.85;1.05;;;;;;;3.20;97.58;99845.22;1670411;85;27468;-74
2022/01/28 09:10:33;;;;;;;2.10;1.25;;;;;;;3.20;97.47;99857.13;1669935;84;25379;-75
2022/01/28 09:15:38;;;;;;;1.85;1.00;;;;;;;3.21;97.12;99862.25;1670510;85;26554;-75
2022/01/28 09:18:04;;;;;;;1.35;1.00;;;;;;;3.22;97.16;99861.28;1670524;85;25834;-74
2022/01/28 09:20:33;;;;;;;0.95;0.85;;;;;;;3.20;97.08;99884.91;1670236;84;27432;-74
2022/01/28 09:23:01;;;;;;;2.10;1.02;;;;;;;3.20;97.16;99897.66;1670226;84;25846;-75
2022/01/28 09:25:27;;;;;;;2.12;1.15;;;;;;;3.22;97.21;99897.00;1670839;85;25936;-75
2022/01/28 09:27:54;;;;;;;1.25;1.15;;;;;;;3.24;97.41;99899.00;1670368;85;26264;-74
2022/01/28 09:30:20;;;;;;;1.70;1.00;;;;;;;3.28;96.86;99904.80;1670646;84;26010;-75
2022/01/28 09:32:46;;;;;;;2.17;1.27;;;;;;;3.26;96.53;99906.28;1670481;85;28239;-74
2022/01/28 09:35:13;;;;;;;1.80;0.90;;;;;;;3.27;96.59;99933.59;1670299;85;25844;-74
2022/01/28 09:37:39;;;;;;;1.40;0.98;;;;;;;3.27;97.19;99931.78;1670479;85;25885;-74
2022/01/28 09:40:07;;;;;;;2.37;1.32;;;;;;;3.26;96.35;99932.75;1670395;84;26543;-75
2022/01/28 09:42:40;;;;;;;2.05;1.27;;;;;;;3.24;96.44;99943.98;1670294;84;25826;-74
2022/01/28 09:45:07;;;;;;;2.83;1.13;;;;;;;3.21;96.52;99945.61;1670093;85;27561;-74
2022/01/28 09:47:33;;;;;;;2.33;1.30;;;;;;;3.19;95.89;99956.84;1670320;84;25784;-74
2022/01/28 09:50:00;;;;;;;1.40;0.90;;;;;;;3.19;96.35;99964.78;1669829;84;26400;-74
2022/01/28 09:52:26;;;;;;;3.10;1.37;;;;;;;3.20;96.45;99966.95;1670394;83;26591;-75
2022/01/28 09:54:52;;;;;;;2.55;1.30;;;;;;;3.22;96.63;99964.48;1670468;85;25748;-75
2022/01/28 09:57:20;;;;;;;2.60;1.20;;;;;;;3.23;96.09;99974.59;1670461;85;27439;-74
2022/01/28 09:59:47;;;;;;;1.75;1.42;;;;;;;3.24;95.63;99978.87;1670289;84;26472;-74
2022/01/28 10:02:14;;;;;;;1.77;1.10;;;;;;;3.25;95.65;99984.01;1670146;85;25826;-74
2022/01/28 10:04:42;;;;;;;3.98;1.40;;;;;;;3.26;95.06;99993.63;1670411;85;25864;-75
2022/01/28 10:07:15;;;;;;;1.30;1.15;;;;;;;3.27;94.88;99992.66;1645372;85;25934;-75
2022/01/28 10:10:00;;;;;;;2.75;1.32;;;;;;;3.30;94.49;99998.10;1670772;84;28238;-74
2022/01/28 10:12:41;;;;;;;3.00;1.10;;;;;;;3.33;94.51;100009.72;1670104;84;25782;-75
2022/01/28 10:15:04;;;;;;;4.78;2.12;;;;;;;3.40;95.10;100010.25;1667401;85;26415;-75
2022/01/28 10:17:54;;;;;;;2.87;1.72;;;;;;;3.44;94.49;100012.95;1670286;85;26811;-75
2022/01/28 10:20:22;;;;;;;2.12;1.40;;;;;;;3.46;93.94;100032.16;1670329;84;25874;-74
2022/01/28 10:22:59;;;;;;;2.22;1.32;;;;;;;3.44;92.78;100021.38;1670266;84;27589;-74
2022/01/28 10:25:37;;;;;;;3.20;1.37;;;;;;;3.42;92.46;100025.48;1670450;85;25338;-73
2022/01/28 10:28:09;;;;;;;1.98;1.10;;;;;;;3.41;92.12;100024.33;1670436;85;25770;-75
2022/01/28 10:30:39;;;;;;;1.95;0.80;;;;;;;3.40;92.21;100053.13;1670365;84;26455;-74
2022/01/28 10:33:21;;;;;;;1.43;1.10;;;;;;;3.41;91.48;100044.18;1670362;84;25794;-74
2022/01/28 10:36:01;;;;;;;1.27;1.17;;;;;;;3.39;90.75;100048.31;1670658;85;27464;-75
2022/01/28 10:38:37;;;;;;;3.30;1.10;;;;;;;3.39;90.50;100060.23;1670666;83;25964;-74
2022/01/28 10:41:17;;;;;;;2.52;1.12;;;;;;;3.40;89.83;100074.30;1670686;84;25794;-75
2022/01/28 10:43:51;;;;;;;1.27;0.90;;;;;;;3.41;89.53;100077.27;1670621;85;25909;-75
2022/01/28 10:46:31;;;;;;;2.45;1.57;;;;;;;3.46;89.51;100078.98;1670544;85;25833;-74
2022/01/28 10:49:04;;;;;;;1.75;1.00;;;;;;;3.49;89.83;100084.78;1671202;85;27546;-74
2022/01/28 10:51:48;;;;;;;1.87;1.25;;;;;;;3.49;90.36;100083.95;1670359;84;25880;-75
2022/01/28 10:54:23;;;;;;;2.15;1.22;;;;;;;3.49;88.20;100094.05;1670556;85;25710;-74
2022/01/28 10:56:58;;;;;;;2.33;1.47;;;;;;;3.45;87.64;100100.64;1670731;85;25779;-75
2022/01/28 10:59:34;;;;;;;3.45;1.15;;;;;;;3.44;87.95;100102.13;1670752;84;25838;-75
2022/01/28 11:02:02;;;;;;;2.95;1.32;;;;;;;3.44;88.14;100102.97;1670565;84;28278;-74
2022/01/28 11:04:29;;;;;;;2.70;1.45;;;;;;;3.48;88.18;100110.09;1670486;84;25809;-74
2022/01/28 11:06:58;;;;;;;1.72;1.17;;;;;;;3.50;88.30;100123.53;1670664;85;25853;-74
2022/01/28 11:09:25;;;;;;;2.65;1.22;;;;;;;3.49;87.73;100111.26;1670505;84;25822;-74
2022/01/28 11:11:53;;;;;;;2.77;1.75;;;;;;;3.50;86.61;100126.17;1670733;85;25788;-75
2022/01/28 11:14:21;;;;;;;3.50;1.05;;;;;;;3.53;87.67;100131.14;1670608;85;27457;-75
2022/01/28 11:16:48;;;;;;;6.78;1.57;;;;;;;3.55;86.92;100131.83;1670327;84;25936;-74
2022/01/28 11:19:21;;;;;;;3.70;1.47;;;;;;;3.58;85.85;100135.50;1670627;84;25810;-75
2022/01/28 11:22:13;;;;;;;3.33;1.20;;;;;;;3.60;85.50;100141.96;1645892;85;25809;-74
2022/01/28 11:24:57;;;;;;;4.45;1.17;;;;;;;3.62;84.46;100137.34;1670185;85;25787;-75
2022/01/28 11:27:32;;;;;;;2.77;1.00;;;;;;;3.62;83.68;100164.66;1669179;84;28565;-74
2022/01/28 11:30:22;;;;;;;2.10;0.90;;;;;;;3.64;82.73;100165.83;1670566;84;25896;-74
2022/01/28 11:33:08;;;;;;;8.90;1.12;;;;;;;3.65;83.77;100174.97;1670629;83;25742;-75
2022/01/28 11:35:39;;;;;;;2.27;1.00;;;;;;;3.66;79.89;100159.88;1670577;85;25760;-75
2022/01/28 11:38:27;;;;;;;;;;;;;;;3.68;80.21;100172.47;1672999;85;26114;-74
2022/01/28 11:41:15;;;;;;;1.42;0.90;;;;;;;3.71;82.59;100173.02;1670381;84;26995;-74
2022/01/28 11:43:52;;;;;;;2.87;1.17;;;;;;;3.73;81.40;100175.02;1670098;85;25829;-73
2022/01/28 11:46:30;;;;;;;3.52;1.22;;;;;;;3.73;82.62;100182.13;1670493;85;25820;-74
2022/01/28 11:49:02;;;;;;;2.02;1.00;;;;;;;3.73;82.87;100189.59;1670738;83;25773;-74
2022/01/28 11:51:43;;;;;;;2.52;1.20;;;;;;;3.73;82.38;100200.67;1670236;84;25879;-74
2022/01/28 11:54:17;;;;;;;1.70;1.27;;;;;;;3.75;82.78;100201.34;1670196;85;27486;-74
2022/01/28 11:57:02;;;;;;;2.25;1.05;;;;;;;3.78;83.22;100207.19;1670374;85;25961;-76
2022/01/28 11:59:30;;;;;;;2.35;1.50;;;;;;;3.79;81.33;100214.63;1668887;84;25878;-75
2022/01/28 12:02:02;;;;;;;1.75;1.00;;;;;;;3.79;82.27;100223.89;1670714;85;26506;-74
2022/01/28 12:04:35;;;;;;;3.08;1.25;;;;;;;3.78;81.97;100217.79;1670447;85;26495;-75
2022/01/28 12:07:17;;;;;;;1.50;0.98;;;;;;;3.78;81.55;100219.59;1670710;85;27457;-74
2022/01/28 12:09:51;;;;;;;2.72;0.80;;;;;;;3.77;80.73;100225.87;1670291;84;26153;-74
2022/01/28 12:12:56;;;;;;;4.00;1.20;;;;;;;3.75;81.09;100223.86;1670600;85;25769;-75
2022/01/28 12:15:17;;;;;;;4.05;1.30;;;;;;;3.74;81.10;100238.92;1668887;85;26081;-74
2022/01/28 12:17:47;;;;;;;2.62;1.45;;;;;;;3.73;80.65;100237.27;1670397;85;25857;-75
2022/01/28 12:20:22;;;;;;;1.62;0.88;;;;;;;3.75;80.36;100245.89;1670316;84;27677;-75
2022/01/28 12:23:15;;;;;;;4.30;1.92;;;;;;;3.76;79.20;100240.11;1670362;85;25772;-75
2022/01/28 12:25:46;;;;;;;2.98;1.00;;;;;;;3.76;78.39;100259.98;1668875;85;25899;-75
2022/01/28 12:28:18;;;;;;;2.60;1.10;;;;;;;3.76;79.01;100254.68;1670968;85;25986;-74
2022/01/28 12:30:48;;;;;;;2.02;1.02;;;;;;;3.76;79.72;100255.49;1670517;84;25824;-74
2022/01/28 12:33:21;;;;;;;2.05;1.17;;;;;;;3.76;79.34;100263.95;1670511;85;27414;-75
2022/01/28 12:35:51;;;;;;;1.57;0.98;;;;;;;3.75;79.93;100253.84;1670391;85;25718;-74
2022/01/28 12:38:23;;;;;;;1.27;1.00;;;;;;;3.75;79.37;100274.19;1670861;84;25912;-74
2022/01/28 12:40:52;;;;;;;2.70;1.30;;;;;;;3.74;79.22;100264.59;1670441;84;25845;-74
2022/01/28 12:43:20;;;;;;;2.62;1.10;;;;;;;3.72;79.42;100278.48;1670389;85;26536;-75
2022/01/28 12:45:59;;;;;;;2.02;1.20;;;;;;;3.70;79.18;100283.10;1669978;84;28395;-74
2022/01/28 12:48:26;;;;;;;2.72;1.42;;;;;;;3.69;79.12;100286.72;1670463;85;26377;-75
2022/01/28 12:50:54;;;;;;;1.80;1.20;;;;;;;3.68;79.49;100283.23;1669934;84;25847;-75
2022/01/28 12:53:39;;;;;;;3.52;1.60;;;;;;;3.70;80.79;100300.32;1670556;85;25880;-74
2022/01/28 12:56:07;;;;;;;6.80;1.67;;;;;;;3.70;81.19;100296.34;1670207;83;26477;-74
2022/01/28 12:58:49;;;;;;;2.37;1.35;;;;;;;3.72;81.46;100293.86;1670770;85;27417;-74
2022/01/28 13:01:19;;;;;;;3.45;1.60;;;;;;;3.74;81.48;100308.30;1670344;84;26564;-75